sensor_id;sensor_type;location;lat;lon;timestamp;pressure;altitude;pressure_sealevel;temperature;humidity
54870;BME280;40756;-37.950;145.008;2023-09-08T00:01:52;100222.38;;;8.68;52.89
54870;BME280;40756;-37.950;145.008;2023-09-08T00:04:22;100216.26;;;9.26;53.45
54870;BME280;40756;-37.950;145.008;2023-09-08T00:06:52;100240.40;;;8.56;54.41
54870;BME280;40756;-37.950;145.008;2023-09-08T00:09:22;100235.67;;;8.86;54.89
54870;BME280;40756;-37.950;145.008;2023-09-08T00:11:52;100247.88;;;8.45;54.91
54870;BME280;40756;-37.950;145.008;2023-09-08T00:14:22;100252.13;;;8.69;55.19
54870;BME280;40756;-37.950;145.008;2023-09-08T00:16:53;100257.71;;;8.47;56.32
54870;BME280;40756;-37.950;145.008;2023-09-08T00:19:22;100277.86;;;8.46;56.27
54870;BME280;40756;-37.950;145.008;2023-09-08T00:21:52;100282.64;;;8.50;57.18
54870;BME280;40756;-37.950;145.008;2023-09-08T00:24:21;100284.42;;;8.68;56.11
54870;BME280;40756;-37.950;145.008;2023-09-08T00:26:51;100282.68;;;9.61;55.48
54870;BME280;40756;-37.950;145.008;2023-09-08T00:29:21;100299.18;;;9.08;57.45
54870;BME280;40756;-37.950;145.008;2023-09-08T00:31:51;100300.92;;;8.92;57.06
54870;BME280;40756;-37.950;145.008;2023-09-08T00:34:20;100328.17;;;8.52;56.79
54870;BME280;40756;-37.950;145.008;2023-09-08T00:36:50;100322.15;;;8.39;57.69
54870;BME280;40756;-37.950;145.008;2023-09-08T00:39:20;100336.94;;;8.18;58.77
54870;BME280;40756;-37.950;145.008;2023-09-08T00:41:51;100356.39;;;8.73;57.76
54870;BME280;40756;-37.950;145.008;2023-09-08T00:44:20;100371.15;;;8.08;58.06
54870;BME280;40756;-37.950;145.008;2023-09-08T00:46:50;100377.68;;;8.31;57.72
54870;BME280;40756;-37.950;145.008;2023-09-08T00:49:19;100381.83;;;9.09;56.23
54870;BME280;40756;-37.950;145.008;2023-09-08T00:51:49;100383.59;;;8.98;56.92
54870;BME280;40756;-37.950;145.008;2023-09-08T00:54:19;100403.46;;;8.68;57.23
54870;BME280;40756;-37.950;145.008;2023-09-08T00:56:49;100433.17;;;8.73;57.01
54870;BME280;40756;-37.950;145.008;2023-09-08T00:59:23;100434.74;;;8.74;58.26
54870;BME280;40756;-37.950;145.008;2023-09-08T01:01:53;100442.46;;;9.00;57.69
54870;BME280;40756;-37.950;145.008;2023-09-08T01:04:22;100452.89;;;8.94;57.16
54870;BME280;40756;-37.950;145.008;2023-09-08T01:06:53;100467.65;;;8.93;56.68
54870;BME280;40756;-37.950;145.008;2023-09-08T01:09:23;100473.23;;;9.06;57.28
54870;BME280;40756;-37.950;145.008;2023-09-08T01:11:54;100464.53;;;9.65;55.38
54870;BME280;40756;-37.950;145.008;2023-09-08T01:14:25;100483.42;;;9.54;54.95
54870;BME280;40756;-37.950;145.008;2023-09-08T01:16:56;100483.12;;;9.86;54.37
54870;BME280;40756;-37.950;145.008;2023-09-08T01:19:26;100484.36;;;9.83;55.04
54870;BME280;40756;-37.950;145.008;2023-09-08T01:22:21;100494.74;;;9.79;54.96
54870;BME280;40756;-37.950;145.008;2023-09-08T01:25:09;100523.48;;;9.22;55.35
54870;BME280;40756;-37.950;145.008;2023-09-08T01:27:46;100517.31;;;9.36;56.33
54870;BME280;40756;-37.950;145.008;2023-09-08T01:30:16;100535.53;;;9.54;56.25
54870;BME280;40756;-37.950;145.008;2023-09-08T01:32:47;100544.75;;;9.58;54.86
54870;BME280;40756;-37.950;145.008;2023-09-08T01:35:17;100541.56;;;8.70;56.70
54870;BME280;40756;-37.950;145.008;2023-09-08T01:37:48;100538.14;;;8.46;58.03
54870;BME280;40756;-37.950;145.008;2023-09-08T01:40:17;100565.52;;;8.63;59.00
54870;BME280;40756;-37.950;145.008;2023-09-08T01:42:49;100545.17;;;9.09;57.44
54870;BME280;40756;-37.950;145.008;2023-09-08T01:45:19;100579.11;;;8.64;57.30
54870;BME280;40756;-37.950;145.008;2023-09-08T01:47:48;100561.71;;;9.57;55.79
54870;BME280;40756;-37.950;145.008;2023-09-08T01:50:18;100574.09;;;9.16;56.47
54870;BME280;40756;-37.950;145.008;2023-09-08T01:52:48;100564.67;;;9.44;56.49
54870;BME280;40756;-37.950;145.008;2023-09-08T01:55:17;100571.04;;;9.67;56.44
54870;BME280;40756;-37.950;145.008;2023-09-08T01:57:47;100594.37;;;8.52;57.93
54870;BME280;40756;-37.950;145.008;2023-09-08T02:00:17;100580.72;;;9.28;56.73
54870;BME280;40756;-37.950;145.008;2023-09-08T02:02:46;100588.71;;;8.76;57.85
54870;BME280;40756;-37.950;145.008;2023-09-08T02:05:17;100595.76;;;8.78;57.81
54870;BME280;40756;-37.950;145.008;2023-09-08T02:07:46;100597.12;;;9.08;57.44
54870;BME280;40756;-37.950;145.008;2023-09-08T02:10:16;100596.26;;;9.94;56.49
54870;BME280;40756;-37.950;145.008;2023-09-08T02:12:45;100599.99;;;9.51;56.15
54870;BME280;40756;-37.950;145.008;2023-09-08T02:15:15;100600.33;;;9.61;55.73
54870;BME280;40756;-37.950;145.008;2023-09-08T02:17:44;100610.04;;;9.56;56.08
54870;BME280;40756;-37.950;145.008;2023-09-08T02:20:14;100611.03;;;8.98;57.88
54870;BME280;40756;-37.950;145.008;2023-09-08T02:22:44;100618.34;;;9.41;56.50
54870;BME280;40756;-37.950;145.008;2023-09-08T02:25:14;100624.88;;;8.92;56.33
54870;BME280;40756;-37.950;145.008;2023-09-08T02:27:43;100617.43;;;9.82;56.00
54870;BME280;40756;-37.950;145.008;2023-09-08T02:30:13;100642.02;;;9.71;55.70
54870;BME280;40756;-37.950;145.008;2023-09-08T02:32:43;100651.09;;;9.46;56.21
54870;BME280;40756;-37.950;145.008;2023-09-08T02:35:13;100654.74;;;9.55;55.23
54870;BME280;40756;-37.950;145.008;2023-09-08T02:37:42;100657.07;;;9.63;55.79
54870;BME280;40756;-37.950;145.008;2023-09-08T02:40:12;100662.78;;;9.46;56.85
54870;BME280;40756;-37.950;145.008;2023-09-08T02:42:42;100667.56;;;10.14;54.94
54870;BME280;40756;-37.950;145.008;2023-09-08T02:45:12;100684.39;;;10.01;55.25
54870;BME280;40756;-37.950;145.008;2023-09-08T02:47:42;100672.94;;;9.81;54.97
54870;BME280;40756;-37.950;145.008;2023-09-08T02:50:11;100680.58;;;9.68;56.22
54870;BME280;40756;-37.950;145.008;2023-09-08T02:52:41;100713.51;;;9.48;54.78
54870;BME280;40756;-37.950;145.008;2023-09-08T02:55:10;100695.40;;;10.07;54.26
54870;BME280;40756;-37.950;145.008;2023-09-08T02:57:40;100695.80;;;10.10;53.97
54870;BME280;40756;-37.950;145.008;2023-09-08T03:00:11;100714.10;;;10.14;55.18
54870;BME280;40756;-37.950;145.008;2023-09-08T03:02:41;100708.65;;;9.98;55.10
54870;BME280;40756;-37.950;145.008;2023-09-08T03:05:10;100731.91;;;9.64;56.24
54870;BME280;40756;-37.950;145.008;2023-09-08T03:07:40;100722.95;;;9.44;56.15
54870;BME280;40756;-37.950;145.008;2023-09-08T03:10:11;100736.75;;;8.53;57.67
54870;BME280;40756;-37.950;145.008;2023-09-08T03:12:41;100741.72;;;9.81;55.23
54870;BME280;40756;-37.950;145.008;2023-09-08T03:15:11;100755.07;;;10.93;54.25
54870;BME280;40756;-37.950;145.008;2023-09-08T03:17:41;100767.70;;;9.25;55.50
54870;BME280;40756;-37.950;145.008;2023-09-08T03:20:12;100751.21;;;10.06;53.68
54870;BME280;40756;-37.950;145.008;2023-09-08T03:22:41;100758.11;;;9.69;54.99
54870;BME280;40756;-37.950;145.008;2023-09-08T03:25:11;100765.32;;;9.75;54.50
54870;BME280;40756;-37.950;145.008;2023-09-08T03:27:42;100772.27;;;9.80;53.36
54870;BME280;40756;-37.950;145.008;2023-09-08T03:30:13;100780.17;;;9.78;53.18
54870;BME280;40756;-37.950;145.008;2023-09-08T03:32:43;100793.40;;;10.45;52.71
54870;BME280;40756;-37.950;145.008;2023-09-08T03:35:12;100793.78;;;8.96;55.07
54870;BME280;40756;-37.950;145.008;2023-09-08T03:37:42;100807.03;;;9.76;54.54
54870;BME280;40756;-37.950;145.008;2023-09-08T03:40:12;100813.97;;;9.84;54.61
54870;BME280;40756;-37.950;145.008;2023-09-08T03:42:42;100812.86;;;9.98;54.71
54870;BME280;40756;-37.950;145.008;2023-09-08T03:45:12;100819.91;;;10.02;54.31
54870;BME280;40756;-37.950;145.008;2023-09-08T03:47:42;100827.09;;;9.49;54.22
54870;BME280;40756;-37.950;145.008;2023-09-08T03:50:12;100838.88;;;9.55;54.64
54870;BME280;40756;-37.950;145.008;2023-09-08T03:52:42;100845.17;;;9.38;54.44
54870;BME280;40756;-37.950;145.008;2023-09-08T03:55:11;100848.12;;;9.78;55.04
54870;BME280;40756;-37.950;145.008;2023-09-08T03:57:41;100857.63;;;9.65;55.18
54870;BME280;40756;-37.950;145.008;2023-09-08T04:00:12;100863.67;;;8.92;56.78
54870;BME280;40756;-37.950;145.008;2023-09-08T04:02:42;100863.54;;;9.92;55.93
54870;BME280;40756;-37.950;145.008;2023-09-08T04:05:12;100864.83;;;10.59;53.97
54870;BME280;40756;-37.950;145.008;2023-09-08T04:07:41;100889.63;;;10.18;53.70
54870;BME280;40756;-37.950;145.008;2023-09-08T04:10:11;100886.41;;;10.01;54.22
54870;BME280;40756;-37.950;145.008;2023-09-08T04:12:40;100884.20;;;9.73;53.86
54870;BME280;40756;-37.950;145.008;2023-09-08T04:15:10;100893.71;;;9.54;54.99
54870;BME280;40756;-37.950;145.008;2023-09-08T04:17:40;100910.52;;;9.28;55.49
54870;BME280;40756;-37.950;145.008;2023-09-08T04:20:10;100919.25;;;9.73;55.02
54870;BME280;40756;-37.950;145.008;2023-09-08T04:22:39;100926.86;;;9.23;54.75
54870;BME280;40756;-37.950;145.008;2023-09-08T04:25:09;100932.48;;;9.57;56.57
54870;BME280;40756;-37.950;145.008;2023-09-08T04:27:39;100928.87;;;9.78;56.28
54870;BME280;40756;-37.950;145.008;2023-09-08T04:30:09;100948.17;;;9.29;56.96
54870;BME280;40756;-37.950;145.008;2023-09-08T04:32:39;100951.47;;;9.28;58.12
54870;BME280;40756;-37.950;145.008;2023-09-08T04:35:10;100951.19;;;9.32;57.08
54870;BME280;40756;-37.950;145.008;2023-09-08T04:37:39;100954.50;;;9.34;57.24
54870;BME280;40756;-37.950;145.008;2023-09-08T04:40:09;100965.32;;;9.33;55.89
54870;BME280;40756;-37.950;145.008;2023-09-08T04:42:39;100972.87;;;9.50;54.07
54870;BME280;40756;-37.950;145.008;2023-09-08T04:45:09;100979.14;;;10.05;53.20
54870;BME280;40756;-37.950;145.008;2023-09-08T04:47:39;101026.29;;;9.28;53.90
54870;BME280;40756;-37.950;145.008;2023-09-08T04:50:09;101001.00;;;9.32;54.03
54870;BME280;40756;-37.950;145.008;2023-09-08T04:52:39;101004.11;;;9.41;53.86
54870;BME280;40756;-37.950;145.008;2023-09-08T04:55:09;101025.33;;;9.60;52.88
54870;BME280;40756;-37.950;145.008;2023-09-08T04:57:39;101026.11;;;9.40;55.36
54870;BME280;40756;-37.950;145.008;2023-09-08T05:00:10;101032.38;;;9.98;53.69
54870;BME280;40756;-37.950;145.008;2023-09-08T05:02:39;101042.88;;;9.04;55.44
54870;BME280;40756;-37.950;145.008;2023-09-08T05:05:09;101055.47;;;8.90;56.78
54870;BME280;40756;-37.950;145.008;2023-09-08T05:07:39;101050.26;;;10.40;54.64
54870;BME280;40756;-37.950;145.008;2023-09-08T05:10:09;101053.14;;;9.72;55.41
54870;BME280;40756;-37.950;145.008;2023-09-08T05:12:39;101055.89;;;9.98;54.61
54870;BME280;40756;-37.950;145.008;2023-09-08T05:15:08;101067.83;;;9.50;53.96
54870;BME280;40756;-37.950;145.008;2023-09-08T05:17:38;101071.63;;;9.51;52.66
54870;BME280;40756;-37.950;145.008;2023-09-08T05:20:09;101082.82;;;9.38;53.41
54870;BME280;40756;-37.950;145.008;2023-09-08T05:22:39;101086.45;;;10.15;52.32
54870;BME280;40756;-37.950;145.008;2023-09-08T05:25:09;101096.84;;;8.89;51.87
54870;BME280;40756;-37.950;145.008;2023-09-08T05:27:38;101090.39;;;9.70;51.68
54870;BME280;40756;-37.950;145.008;2023-09-08T05:30:09;101102.70;;;9.80;51.42
54870;BME280;40756;-37.950;145.008;2023-09-08T05:32:38;101108.94;;;9.36;51.81
54870;BME280;40756;-37.950;145.008;2023-09-08T05:35:08;101113.19;;;9.04;52.92
54870;BME280;40756;-37.950;145.008;2023-09-08T05:37:38;101129.19;;;9.32;53.73
54870;BME280;40756;-37.950;145.008;2023-09-08T05:40:09;101133.41;;;9.63;54.60
54870;BME280;40756;-37.950;145.008;2023-09-08T05:42:38;101139.23;;;9.68;53.60
54870;BME280;40756;-37.950;145.008;2023-09-08T05:45:09;101152.36;;;9.52;54.00
54870;BME280;40756;-37.950;145.008;2023-09-08T05:47:39;101153.10;;;9.64;54.78
54870;BME280;40756;-37.950;145.008;2023-09-08T05:50:09;101152.78;;;9.50;55.48
54870;BME280;40756;-37.950;145.008;2023-09-08T05:52:39;101168.88;;;9.82;54.36
54870;BME280;40756;-37.950;145.008;2023-09-08T05:55:09;101176.04;;;9.33;54.49
54870;BME280;40756;-37.950;145.008;2023-09-08T05:57:38;101178.31;;;9.49;53.69
54870;BME280;40756;-37.950;145.008;2023-09-08T06:00:09;101192.67;;;9.49;55.02
54870;BME280;40756;-37.950;145.008;2023-09-08T06:02:38;101193.83;;;10.07;52.89
54870;BME280;40756;-37.950;145.008;2023-09-08T06:05:08;101196.51;;;10.40;52.82
54870;BME280;40756;-37.950;145.008;2023-09-08T06:07:38;101212.85;;;9.89;52.42
54870;BME280;40756;-37.950;145.008;2023-09-08T06:10:09;101221.97;;;9.10;55.13
54870;BME280;40756;-37.950;145.008;2023-09-08T06:12:38;101216.92;;;9.51;55.50
54870;BME280;40756;-37.950;145.008;2023-09-08T06:15:08;101231.14;;;9.69;53.83
54870;BME280;40756;-37.950;145.008;2023-09-08T06:17:38;101241.13;;;9.53;55.95
54870;BME280;40756;-37.950;145.008;2023-09-08T06:20:08;101251.65;;;8.87;58.53
54870;BME280;40756;-37.950;145.008;2023-09-08T06:22:38;101253.30;;;9.61;58.03
54870;BME280;40756;-37.950;145.008;2023-09-08T06:25:08;101263.08;;;10.17;56.27
54870;BME280;40756;-37.950;145.008;2023-09-08T06:27:38;101268.84;;;9.48;55.76
54870;BME280;40756;-37.950;145.008;2023-09-08T06:30:08;101279.62;;;8.69;59.19
54870;BME280;40756;-37.950;145.008;2023-09-08T06:32:38;101290.28;;;9.97;57.58
54870;BME280;40756;-37.950;145.008;2023-09-08T06:35:08;101304.76;;;9.61;58.70
54870;BME280;40756;-37.950;145.008;2023-09-08T06:37:38;101305.15;;;9.33;59.89
54870;BME280;40756;-37.950;145.008;2023-09-08T06:40:08;101306.51;;;9.45;59.33
54870;BME280;40756;-37.950;145.008;2023-09-08T06:42:37;101323.86;;;8.22;61.85
54870;BME280;40756;-37.950;145.008;2023-09-08T06:45:08;101324.78;;;8.47;62.24
54870;BME280;40756;-37.950;145.008;2023-09-08T06:47:38;101328.49;;;8.78;60.73
54870;BME280;40756;-37.950;145.008;2023-09-08T06:50:09;101340.51;;;8.38;61.67
54870;BME280;40756;-37.950;145.008;2023-09-08T06:52:38;101343.64;;;9.00;60.18
54870;BME280;40756;-37.950;145.008;2023-09-08T06:55:08;101352.79;;;8.68;58.73
54870;BME280;40756;-37.950;145.008;2023-09-08T06:57:38;101351.66;;;8.79;57.04
54870;BME280;40756;-37.950;145.008;2023-09-08T07:00:08;101369.99;;;8.79;57.16
54870;BME280;40756;-37.950;145.008;2023-09-08T07:02:38;101371.62;;;8.68;55.76
54870;BME280;40756;-37.950;145.008;2023-09-08T07:05:08;101380.97;;;9.71;54.05
54870;BME280;40756;-37.950;145.008;2023-09-08T07:07:37;101394.75;;;9.00;55.51
54870;BME280;40756;-37.950;145.008;2023-09-08T07:10:08;101397.68;;;8.04;58.19
54870;BME280;40756;-37.950;145.008;2023-09-08T07:12:49;101409.35;;;8.65;56.57
54870;BME280;40756;-37.950;145.008;2023-09-08T07:15:19;101409.16;;;8.70;56.92
54870;BME280;40756;-37.950;145.008;2023-09-08T07:17:49;101433.16;;;8.33;59.50
54870;BME280;40756;-37.950;145.008;2023-09-08T07:20:18;101427.35;;;8.46;59.09
54870;BME280;40756;-37.950;145.008;2023-09-08T07:22:48;101434.37;;;8.35;57.99
54870;BME280;40756;-37.950;145.008;2023-09-08T07:25:18;101422.39;;;9.14;56.77
54870;BME280;40756;-37.950;145.008;2023-09-08T07:27:48;101437.89;;;8.20;59.14
54870;BME280;40756;-37.950;145.008;2023-09-08T07:30:18;101440.14;;;9.57;56.90
54870;BME280;40756;-37.950;145.008;2023-09-08T07:32:47;101445.04;;;9.19;57.14
54870;BME280;40756;-37.950;145.008;2023-09-08T07:35:17;101453.49;;;8.77;57.04
54870;BME280;40756;-37.950;145.008;2023-09-08T07:37:47;101464.75;;;9.17;57.74
54870;BME280;40756;-37.950;145.008;2023-09-08T07:40:16;101473.69;;;8.52;57.97
54870;BME280;40756;-37.950;145.008;2023-09-08T07:42:46;101491.18;;;8.54;58.72
54870;BME280;40756;-37.950;145.008;2023-09-08T07:45:16;101493.87;;;8.40;58.55
54870;BME280;40756;-37.950;145.008;2023-09-08T07:47:46;101498.85;;;8.74;58.45
54870;BME280;40756;-37.950;145.008;2023-09-08T07:50:23;101504.00;;;8.09;59.79
54870;BME280;40756;-37.950;145.008;2023-09-08T07:52:54;101511.95;;;8.44;58.32
54870;BME280;40756;-37.950;145.008;2023-09-08T07:55:24;101513.96;;;8.90;57.18
54870;BME280;40756;-37.950;145.008;2023-09-08T07:57:54;101517.16;;;8.59;59.06
54870;BME280;40756;-37.950;145.008;2023-09-08T08:00:24;101535.91;;;7.36;58.42
54870;BME280;40756;-37.950;145.008;2023-09-08T08:02:56;101535.77;;;7.22;59.21
54870;BME280;40756;-37.950;145.008;2023-09-08T08:05:26;101553.89;;;7.69;58.38
54870;BME280;40756;-37.950;145.008;2023-09-08T08:07:55;101544.87;;;8.35;57.72
54870;BME280;40756;-37.950;145.008;2023-09-08T08:10:25;101555.35;;;7.89;57.77
54870;BME280;40756;-37.950;145.008;2023-09-08T08:12:55;101569.98;;;8.33;58.05
54870;BME280;40756;-37.950;145.008;2023-09-08T08:15:36;101565.04;;;8.13;58.22
54870;BME280;40756;-37.950;145.008;2023-09-08T08:18:05;101574.81;;;8.21;58.38
54870;BME280;40756;-37.950;145.008;2023-09-08T08:20:36;101588.43;;;8.10;58.27
54870;BME280;40756;-37.950;145.008;2023-09-08T08:23:06;101582.48;;;9.38;56.55
54870;BME280;40756;-37.950;145.008;2023-09-08T08:25:36;101590.50;;;8.11;58.75
54870;BME280;40756;-37.950;145.008;2023-09-08T08:28:06;101598.42;;;7.89;61.19
54870;BME280;40756;-37.950;145.008;2023-09-08T08:30:36;101603.86;;;8.49;58.48
54870;BME280;40756;-37.950;145.008;2023-09-08T08:33:06;101623.04;;;7.57;60.15
54870;BME280;40756;-37.950;145.008;2023-09-08T08:35:35;101622.45;;;7.85;60.03
54870;BME280;40756;-37.950;145.008;2023-09-08T08:38:05;101631.71;;;7.83;60.01
54870;BME280;40756;-37.950;145.008;2023-09-08T08:40:34;101638.71;;;7.39;59.57
54870;BME280;40756;-37.950;145.008;2023-09-08T08:43:08;101650.38;;;7.60;58.26
54870;BME280;40756;-37.950;145.008;2023-09-08T08:45:39;101655.98;;;7.82;58.41
54870;BME280;40756;-37.950;145.008;2023-09-08T08:48:09;101677.45;;;7.37;59.49
54870;BME280;40756;-37.950;145.008;2023-09-08T08:50:43;101671.33;;;7.65;58.94
54870;BME280;40756;-37.950;145.008;2023-09-08T08:53:13;101685.82;;;7.34;59.11
54870;BME280;40756;-37.950;145.008;2023-09-08T08:55:43;101685.39;;;7.83;58.54
54870;BME280;40756;-37.950;145.008;2023-09-08T08:58:14;101692.61;;;7.70;58.79
54870;BME280;40756;-37.950;145.008;2023-09-08T09:00:45;101703.01;;;7.58;59.82
54870;BME280;40756;-37.950;145.008;2023-09-08T09:03:15;101704.23;;;7.79;58.76
54870;BME280;40756;-37.950;145.008;2023-09-08T09:05:45;101722.43;;;7.45;60.00
54870;BME280;40756;-37.950;145.008;2023-09-08T09:08:16;101714.80;;;8.44;58.05
54870;BME280;40756;-37.950;145.008;2023-09-08T09:10:46;101731.34;;;7.87;58.23
54870;BME280;40756;-37.950;145.008;2023-09-08T09:13:15;101742.22;;;7.11;60.61
54870;BME280;40756;-37.950;145.008;2023-09-08T09:15:45;101739.69;;;8.19;58.01
54870;BME280;40756;-37.950;145.008;2023-09-08T09:18:15;101743.77;;;8.54;58.32
54870;BME280;40756;-37.950;145.008;2023-09-08T09:20:54;101756.52;;;7.76;59.09
54870;BME280;40756;-37.950;145.008;2023-09-08T09:23:29;101755.58;;;7.63;59.73
54870;BME280;40756;-37.950;145.008;2023-09-08T09:26:00;101764.26;;;7.98;59.50
54870;BME280;40756;-37.950;145.008;2023-09-08T09:28:31;101770.37;;;7.80;60.42
54870;BME280;40756;-37.950;145.008;2023-09-08T09:31:00;101773.16;;;7.85;60.20
54870;BME280;40756;-37.950;145.008;2023-09-08T09:33:31;101784.39;;;8.08;59.51
54870;BME280;40756;-37.950;145.008;2023-09-08T09:36:00;101789.88;;;8.20;60.27
54870;BME280;40756;-37.950;145.008;2023-09-08T09:38:30;101789.07;;;8.06;60.94
54870;BME280;40756;-37.950;145.008;2023-09-08T09:41:00;101781.13;;;8.57;61.64
54870;BME280;40756;-37.950;145.008;2023-09-08T09:43:29;101793.26;;;8.01;60.27
54870;BME280;40756;-37.950;145.008;2023-09-08T09:46:00;101786.82;;;8.12;60.53
54870;BME280;40756;-37.950;145.008;2023-09-08T09:48:30;101796.72;;;8.11;61.33
54870;BME280;40756;-37.950;145.008;2023-09-08T09:51:00;101803.42;;;8.42;59.09
54870;BME280;40756;-37.950;145.008;2023-09-08T09:53:44;101818.32;;;7.92;59.69
54870;BME280;40756;-37.950;145.008;2023-09-08T09:56:14;101818.44;;;7.90;61.11
54870;BME280;40756;-37.950;145.008;2023-09-08T09:58:46;101817.51;;;8.16;60.31
54870;BME280;40756;-37.950;145.008;2023-09-08T10:01:16;101836.07;;;7.54;61.08
54870;BME280;40756;-37.950;145.008;2023-09-08T10:03:46;101837.56;;;7.29;61.56
54870;BME280;40756;-37.950;145.008;2023-09-08T10:06:17;101838.23;;;8.12;59.80
54870;BME280;40756;-37.950;145.008;2023-09-08T10:08:48;101860.67;;;7.27;59.97
54870;BME280;40756;-37.950;145.008;2023-09-08T10:11:22;101859.02;;;7.54;60.54
54870;BME280;40756;-37.950;145.008;2023-09-08T10:13:56;101869.93;;;7.23;61.03
54870;BME280;40756;-37.950;145.008;2023-09-08T10:16:28;101868.95;;;7.62;60.91
54870;BME280;40756;-37.950;145.008;2023-09-08T10:19:00;101871.53;;;7.69;61.15
54870;BME280;40756;-37.950;145.008;2023-09-08T10:21:31;101880.05;;;7.49;61.26
54870;BME280;40756;-37.950;145.008;2023-09-08T10:24:09;101883.86;;;6.81;61.81
54870;BME280;40756;-37.950;145.008;2023-09-08T10:26:44;101877.22;;;7.37;61.58
54870;BME280;40756;-37.950;145.008;2023-09-08T10:29:15;101871.92;;;7.80;60.96
54870;BME280;40756;-37.950;145.008;2023-09-08T10:31:45;101879.96;;;7.48;61.24
54870;BME280;40756;-37.950;145.008;2023-09-08T10:34:16;101885.51;;;7.15;62.41
54870;BME280;40756;-37.950;145.008;2023-09-08T10:36:46;101895.06;;;7.23;62.17
54870;BME280;40756;-37.950;145.008;2023-09-08T10:39:34;101895.42;;;7.53;61.79
54870;BME280;40756;-37.950;145.008;2023-09-08T10:42:41;101893.23;;;7.18;61.58
54870;BME280;40756;-37.950;145.008;2023-09-08T10:45:18;101900.25;;;7.29;61.18
54870;BME280;40756;-37.950;145.008;2023-09-08T10:47:57;101902.71;;;7.34;61.93
54870;BME280;40756;-37.950;145.008;2023-09-08T10:50:33;101903.13;;;7.16;61.25
54870;BME280;40756;-37.950;145.008;2023-09-08T10:53:12;101907.66;;;6.41;61.19
54870;BME280;40756;-37.950;145.008;2023-09-08T10:55:43;101917.97;;;7.00;61.28
54870;BME280;40756;-37.950;145.008;2023-09-08T10:58:18;101917.27;;;6.35;60.37
54870;BME280;40756;-37.950;145.008;2023-09-08T11:00:51;101921.02;;;6.48;60.77
54870;BME280;40756;-37.950;145.008;2023-09-08T11:03:28;101917.66;;;6.65;61.59
54870;BME280;40756;-37.950;145.008;2023-09-08T11:06:14;101924.43;;;6.95;60.32
54870;BME280;40756;-37.950;145.008;2023-09-08T11:08:45;101913.73;;;7.61;59.06
54870;BME280;40756;-37.950;145.008;2023-09-08T11:11:16;101918.24;;;6.90;61.05
54870;BME280;40756;-37.950;145.008;2023-09-08T11:13:46;101914.68;;;7.55;59.34
54870;BME280;40756;-37.950;145.008;2023-09-08T11:16:16;101919.27;;;6.77;58.10
54870;BME280;40756;-37.950;145.008;2023-09-08T11:18:45;101921.13;;;6.79;57.76
54870;BME280;40756;-37.950;145.008;2023-09-08T11:21:16;101925.58;;;6.71;58.02
54870;BME280;40756;-37.950;145.008;2023-09-08T11:23:45;101921.26;;;7.78;56.80
54870;BME280;40756;-37.950;145.008;2023-09-08T11:26:15;101934.29;;;7.05;58.58
54870;BME280;40756;-37.950;145.008;2023-09-08T11:28:45;101934.30;;;7.58;57.09
54870;BME280;40756;-37.950;145.008;2023-09-08T11:31:14;101938.45;;;6.86;57.38
54870;BME280;40756;-37.950;145.008;2023-09-08T11:33:45;101938.40;;;7.76;55.84
54870;BME280;40756;-37.950;145.008;2023-09-08T11:36:18;101946.04;;;8.54;54.13
54870;BME280;40756;-37.950;145.008;2023-09-08T11:38:47;101951.93;;;7.52;55.74
54870;BME280;40756;-37.950;145.008;2023-09-08T11:41:17;101952.10;;;7.92;54.87
54870;BME280;40756;-37.950;145.008;2023-09-08T11:43:47;101955.25;;;7.03;55.37
54870;BME280;40756;-37.950;145.008;2023-09-08T11:46:18;101965.98;;;6.71;56.69
54870;BME280;40756;-37.950;145.008;2023-09-08T11:48:48;101950.04;;;7.89;55.73
54870;BME280;40756;-37.950;145.008;2023-09-08T11:51:17;101972.21;;;7.81;55.17
54870;BME280;40756;-37.950;145.008;2023-09-08T11:53:52;101955.50;;;7.38;55.58
54870;BME280;40756;-37.950;145.008;2023-09-08T11:56:22;101967.47;;;7.97;54.59
54870;BME280;40756;-37.950;145.008;2023-09-08T11:58:52;101970.83;;;7.99;55.03
54870;BME280;40756;-37.950;145.008;2023-09-08T12:01:22;101975.19;;;7.61;53.70
54870;BME280;40756;-37.950;145.008;2023-09-08T12:03:55;101981.11;;;7.69;53.89
54870;BME280;40756;-37.950;145.008;2023-09-08T12:06:26;101992.20;;;7.20;55.08
54870;BME280;40756;-37.950;145.008;2023-09-08T12:09:00;101991.37;;;7.57;54.54
54870;BME280;40756;-37.950;145.008;2023-09-08T12:11:34;101990.05;;;8.32;52.30
54870;BME280;40756;-37.950;145.008;2023-09-08T12:14:06;102004.90;;;7.17;54.03
54870;BME280;40756;-37.950;145.008;2023-09-08T12:16:35;101999.30;;;6.95;53.56
54870;BME280;40756;-37.950;145.008;2023-09-08T12:19:05;101993.99;;;7.06;53.83
54870;BME280;40756;-37.950;145.008;2023-09-08T12:24:49;101998.94;;;6.98;54.22
54870;BME280;40756;-37.950;145.008;2023-09-08T12:27:19;102005.58;;;7.14;53.82
54870;BME280;40756;-37.950;145.008;2023-09-08T12:29:56;102007.20;;;6.72;54.74
54870;BME280;40756;-37.950;145.008;2023-09-08T12:32:28;102012.63;;;6.71;54.42
54870;BME280;40756;-37.950;145.008;2023-09-08T12:34:59;102014.35;;;6.87;54.76
54870;BME280;40756;-37.950;145.008;2023-09-08T12:37:29;102023.19;;;7.12;53.62
54870;BME280;40756;-37.950;145.008;2023-09-08T12:39:58;102019.86;;;6.80;54.97
54870;BME280;40756;-37.950;145.008;2023-09-08T12:42:28;102027.89;;;7.29;53.59
54870;BME280;40756;-37.950;145.008;2023-09-08T12:44:57;102031.69;;;6.61;55.17
54870;BME280;40756;-37.950;145.008;2023-09-08T12:47:27;102020.52;;;7.76;53.08
54870;BME280;40756;-37.950;145.008;2023-09-08T12:49:57;102030.70;;;7.24;53.25
54870;BME280;40756;-37.950;145.008;2023-09-08T12:52:27;102029.30;;;6.79;53.16